Hitchita, Oklahoma
Current Conditions -  °F | °C
As of 7:15 PM on Friday 28 Nov 2014 (Local Time) from KOKM Reporting Station
Clear Clear  
Wind Chill: 57°   Ceiling: Unl
Heat Index: 57°   Visibility: 10mi
Dew Point: 47°   Wind: 8mph
Humidity: 67%   Direction: 190°S
Pressure: 29.92"   Gusts: NA
Location:  35.52°N, 95.75°W
Report Text: KOKM 290115Z AUTO 19007KT 10SM CLR 14/08 A2992 RMK AO2 T01410081
Loading
Personal Weather Stations






























Interactive Weather Map New forecast layout! Learn more

10-Day Weather Forecast

Advertisements
Track Severe Weather on mobile